sensor_id;sensor_type;location;lat;lon;timestamp;P1;durP1;ratioP1;P2;durP2;ratioP2
15198;SDS011;7700;48.654;9.070;2022-07-23T00:00:13;4.97;;;4.57;;
15198;SDS011;7700;48.654;9.070;2022-07-23T00:02:39;5.18;;;4.53;;
15198;SDS011;7700;48.654;9.070;2022-07-23T00:05:05;4.80;;;4.35;;
15198;SDS011;7700;48.654;9.070;2022-07-23T00:07:31;4.53;;;4.13;;
15198;SDS011;7700;48.654;9.070;2022-07-23T00:09:56;3.60;;;3.30;;
15198;SDS011;7700;48.654;9.070;2022-07-23T00:12:22;4.60;;;3.55;;
15198;SDS011;7700;48.654;9.070;2022-07-23T00:14:47;3.88;;;3.55;;
15198;SDS011;7700;48.654;9.070;2022-07-23T00:17:13;3.65;;;3.15;;
15198;SDS011;7700;48.654;9.070;2022-07-23T00:19:39;4.07;;;3.30;;
15198;SDS011;7700;48.654;9.070;2022-07-23T00:22:04;3.88;;;3.45;;
15198;SDS011;7700;48.654;9.070;2022-07-23T00:24:30;3.80;;;3.50;;
15198;SDS011;7700;48.654;9.070;2022-07-23T00:26:55;3.75;;;3.47;;
15198;SDS011;7700;48.654;9.070;2022-07-23T00:29:21;3.78;;;3.42;;
15198;SDS011;7700;48.654;9.070;2022-07-23T00:31:46;3.47;;;3.17;;
15198;SDS011;7700;48.654;9.070;2022-07-23T00:34:12;3.42;;;3.17;;
15198;SDS011;7700;48.654;9.070;2022-07-23T00:36:37;4.43;;;3.40;;
15198;SDS011;7700;48.654;9.070;2022-07-23T00:39:03;4.95;;;4.15;;
15198;SDS011;7700;48.654;9.070;2022-07-23T00:41:29;3.60;;;3.30;;
15198;SDS011;7700;48.654;9.070;2022-07-23T00:43:55;3.75;;;3.45;;
15198;SDS011;7700;48.654;9.070;2022-07-23T00:46:20;4.35;;;3.65;;
15198;SDS011;7700;48.654;9.070;2022-07-23T00:48:47;4.13;;;3.72;;
15198;SDS011;7700;48.654;9.070;2022-07-23T00:51:14;3.63;;;3.33;;
15198;SDS011;7700;48.654;9.070;2022-07-23T00:53:41;3.63;;;3.33;;
15198;SDS011;7700;48.654;9.070;2022-07-23T00:56:07;3.88;;;3.55;;
15198;SDS011;7700;48.654;9.070;2022-07-23T00:58:33;3.72;;;3.40;;
15198;SDS011;7700;48.654;9.070;2022-07-23T01:01:00;3.17;;;2.97;;
15198;SDS011;7700;48.654;9.070;2022-07-23T01:03:26;3.80;;;3.50;;
15198;SDS011;7700;48.654;9.070;2022-07-23T01:05:51;3.40;;;3.10;;
15198;SDS011;7700;48.654;9.070;2022-07-23T01:08:17;4.18;;;3.78;;
15198;SDS011;7700;48.654;9.070;2022-07-23T01:10:43;3.58;;;3.28;;
15198;SDS011;7700;48.654;9.070;2022-07-23T01:13:09;3.60;;;3.30;;
15198;SDS011;7700;48.654;9.070;2022-07-23T01:15:36;3.80;;;2.92;;
15198;SDS011;7700;48.654;9.070;2022-07-23T01:18:03;3.65;;;3.38;;
15198;SDS011;7700;48.654;9.070;2022-07-23T01:20:30;4.05;;;3.50;;
15198;SDS011;7700;48.654;9.070;2022-07-23T01:22:56;6.25;;;3.90;;
15198;SDS011;7700;48.654;9.070;2022-07-23T01:25:22;4.85;;;3.80;;
15198;SDS011;7700;48.654;9.070;2022-07-23T01:27:48;3.60;;;3.30;;
15198;SDS011;7700;48.654;9.070;2022-07-23T01:30:14;3.70;;;3.40;;
15198;SDS011;7700;48.654;9.070;2022-07-23T01:32:40;5.93;;;3.92;;
15198;SDS011;7700;48.654;9.070;2022-07-23T01:35:06;4.22;;;3.83;;
15198;SDS011;7700;48.654;9.070;2022-07-23T01:37:32;4.72;;;3.78;;
15198;SDS011;7700;48.654;9.070;2022-07-23T01:39:58;4.32;;;3.92;;
15198;SDS011;7700;48.654;9.070;2022-07-23T01:42:24;4.70;;;4.22;;
15198;SDS011;7700;48.654;9.070;2022-07-23T01:44:49;4.53;;;4.13;;
15198;SDS011;7700;48.654;9.070;2022-07-23T01:47:15;5.25;;;3.85;;
15198;SDS011;7700;48.654;9.070;2022-07-23T01:49:41;4.97;;;4.00;;
15198;SDS011;7700;48.654;9.070;2022-07-23T01:52:06;4.22;;;3.83;;
15198;SDS011;7700;48.654;9.070;2022-07-23T01:54:35;4.20;;;3.90;;
15198;SDS011;7700;48.654;9.070;2022-07-23T01:57:02;4.25;;;3.90;;
15198;SDS011;7700;48.654;9.070;2022-07-23T01:59:27;4.78;;;4.30;;
15198;SDS011;7700;48.654;9.070;2022-07-23T02:01:53;4.72;;;4.25;;
15198;SDS011;7700;48.654;9.070;2022-07-23T02:04:19;5.07;;;4.07;;
15198;SDS011;7700;48.654;9.070;2022-07-23T02:06:45;4.80;;;4.30;;
15198;SDS011;7700;48.654;9.070;2022-07-23T02:09:11;4.20;;;3.88;;
15198;SDS011;7700;48.654;9.070;2022-07-23T02:11:37;5.20;;;4.45;;
15198;SDS011;7700;48.654;9.070;2022-07-23T02:14:03;4.13;;;3.72;;
15198;SDS011;7700;48.654;9.070;2022-07-23T02:16:29;4.10;;;3.70;;
15198;SDS011;7700;48.654;9.070;2022-07-23T02:18:55;4.32;;;4.00;;
15198;SDS011;7700;48.654;9.070;2022-07-23T02:21:20;4.65;;;4.25;;
15198;SDS011;7700;48.654;9.070;2022-07-23T02:23:46;5.38;;;4.28;;
15198;SDS011;7700;48.654;9.070;2022-07-23T02:26:12;4.63;;;3.88;;
15198;SDS011;7700;48.654;9.070;2022-07-23T02:28:37;4.97;;;3.92;;
15198;SDS011;7700;48.654;9.070;2022-07-23T02:31:03;4.63;;;3.90;;
15198;SDS011;7700;48.654;9.070;2022-07-23T02:33:29;5.30;;;4.40;;
15198;SDS011;7700;48.654;9.070;2022-07-23T02:35:54;4.65;;;4.25;;
15198;SDS011;7700;48.654;9.070;2022-07-23T02:38:20;4.95;;;4.45;;
15198;SDS011;7700;48.654;9.070;2022-07-23T02:40:46;4.65;;;4.25;;
15198;SDS011;7700;48.654;9.070;2022-07-23T02:43:11;4.38;;;3.90;;
15198;SDS011;7700;48.654;9.070;2022-07-23T02:45:37;5.00;;;4.07;;
15198;SDS011;7700;48.654;9.070;2022-07-23T02:48:02;4.05;;;3.65;;
15198;SDS011;7700;48.654;9.070;2022-07-23T02:50:28;4.40;;;4.10;;
15198;SDS011;7700;48.654;9.070;2022-07-23T02:52:54;6.03;;;4.13;;
15198;SDS011;7700;48.654;9.070;2022-07-23T02:55:19;4.20;;;3.88;;
15198;SDS011;7700;48.654;9.070;2022-07-23T02:57:45;4.07;;;3.78;;
15198;SDS011;7700;48.654;9.070;2022-07-23T03:00:11;4.47;;;4.18;;
15198;SDS011;7700;48.654;9.070;2022-07-23T03:02:37;4.43;;;4.13;;
15198;SDS011;7700;48.654;9.070;2022-07-23T03:05:02;4.25;;;3.95;;
15198;SDS011;7700;48.654;9.070;2022-07-23T03:07:47;4.20;;;3.90;;
15198;SDS011;7700;48.654;9.070;2022-07-23T03:10:12;5.15;;;4.20;;
15198;SDS011;7700;48.654;9.070;2022-07-23T03:12:38;4.70;;;4.30;;
15198;SDS011;7700;48.654;9.070;2022-07-23T03:15:04;4.28;;;3.88;;
15198;SDS011;7700;48.654;9.070;2022-07-23T03:17:29;4.50;;;4.10;;
15198;SDS011;7700;48.654;9.070;2022-07-23T03:19:55;4.43;;;4.03;;
15198;SDS011;7700;48.654;9.070;2022-07-23T03:22:20;4.43;;;3.95;;
15198;SDS011;7700;48.654;9.070;2022-07-23T03:24:46;4.55;;;4.15;;
15198;SDS011;7700;48.654;9.070;2022-07-23T03:27:24;4.88;;;4.47;;
15198;SDS011;7700;48.654;9.070;2022-07-23T03:29:52;5.10;;;4.57;;
15198;SDS011;7700;48.654;9.070;2022-07-23T03:32:19;4.47;;;4.00;;
15198;SDS011;7700;48.654;9.070;2022-07-23T03:34:45;4.80;;;4.32;;
15198;SDS011;7700;48.654;9.070;2022-07-23T03:37:11;4.60;;;4.13;;
15198;SDS011;7700;48.654;9.070;2022-07-23T03:39:37;4.68;;;4.28;;
15198;SDS011;7700;48.654;9.070;2022-07-23T03:42:02;4.80;;;4.40;;
15198;SDS011;7700;48.654;9.070;2022-07-23T03:44:28;4.72;;;4.32;;
15198;SDS011;7700;48.654;9.070;2022-07-23T03:46:54;4.40;;;3.97;;
15198;SDS011;7700;48.654;9.070;2022-07-23T03:49:19;5.10;;;4.60;;
15198;SDS011;7700;48.654;9.070;2022-07-23T03:51:45;4.57;;;4.28;;
15198;SDS011;7700;48.654;9.070;2022-07-23T03:54:10;5.00;;;4.50;;
15198;SDS011;7700;48.654;9.070;2022-07-23T03:56:36;4.78;;;4.38;;
15198;SDS011;7700;48.654;9.070;2022-07-23T03:59:02;5.20;;;4.13;;
15198;SDS011;7700;48.654;9.070;2022-07-23T04:01:27;6.28;;;4.55;;
15198;SDS011;7700;48.654;9.070;2022-07-23T04:03:53;5.03;;;4.63;;
15198;SDS011;7700;48.654;9.070;2022-07-23T04:06:18;4.50;;;4.20;;
15198;SDS011;7700;48.654;9.070;2022-07-23T04:08:44;5.55;;;5.00;;
15198;SDS011;7700;48.654;9.070;2022-07-23T04:11:09;5.65;;;5.15;;
15198;SDS011;7700;48.654;9.070;2022-07-23T04:13:35;5.03;;;4.60;;
15198;SDS011;7700;48.654;9.070;2022-07-23T04:16:00;5.78;;;5.22;;
15198;SDS011;7700;48.654;9.070;2022-07-23T04:18:26;5.40;;;4.90;;
15198;SDS011;7700;48.654;9.070;2022-07-23T04:20:51;4.95;;;4.55;;
15198;SDS011;7700;48.654;9.070;2022-07-23T04:23:17;5.57;;;5.10;;
15198;SDS011;7700;48.654;9.070;2022-07-23T04:25:43;5.40;;;4.93;;
15198;SDS011;7700;48.654;9.070;2022-07-23T04:28:08;5.38;;;4.97;;
15198;SDS011;7700;48.654;9.070;2022-07-23T04:30:34;5.05;;;4.55;;
15198;SDS011;7700;48.654;9.070;2022-07-23T04:33:00;5.15;;;4.55;;
15198;SDS011;7700;48.654;9.070;2022-07-23T04:35:26;5.38;;;4.82;;
15198;SDS011;7700;48.654;9.070;2022-07-23T04:37:51;5.78;;;4.88;;
15198;SDS011;7700;48.654;9.070;2022-07-23T04:40:17;5.18;;;4.68;;
15198;SDS011;7700;48.654;9.070;2022-07-23T04:42:43;5.18;;;4.72;;
15198;SDS011;7700;48.654;9.070;2022-07-23T04:45:08;5.25;;;4.72;;
15198;SDS011;7700;48.654;9.070;2022-07-23T04:47:34;5.03;;;4.63;;
15198;SDS011;7700;48.654;9.070;2022-07-23T04:50:00;5.70;;;4.15;;
15198;SDS011;7700;48.654;9.070;2022-07-23T04:52:25;4.97;;;4.57;;
15198;SDS011;7700;48.654;9.070;2022-07-23T04:54:51;6.20;;;5.03;;
15198;SDS011;7700;48.654;9.070;2022-07-23T04:57:16;5.38;;;4.95;;
15198;SDS011;7700;48.654;9.070;2022-07-23T04:59:42;6.10;;;5.43;;
15198;SDS011;7700;48.654;9.070;2022-07-23T05:02:07;5.07;;;4.68;;
15198;SDS011;7700;48.654;9.070;2022-07-23T05:04:33;5.13;;;4.72;;
15198;SDS011;7700;48.654;9.070;2022-07-23T05:06:59;4.90;;;4.40;;
15198;SDS011;7700;48.654;9.070;2022-07-23T05:09:25;5.47;;;5.07;;
15198;SDS011;7700;48.654;9.070;2022-07-23T05:11:50;6.13;;;5.43;;
15198;SDS011;7700;48.654;9.070;2022-07-23T05:14:16;5.95;;;5.45;;
15198;SDS011;7700;48.654;9.070;2022-07-23T05:16:41;6.20;;;5.60;;
15198;SDS011;7700;48.654;9.070;2022-07-23T05:19:07;5.70;;;5.20;;
15198;SDS011;7700;48.654;9.070;2022-07-23T05:21:32;5.47;;;4.97;;
15198;SDS011;7700;48.654;9.070;2022-07-23T05:23:58;5.45;;;4.95;;
15198;SDS011;7700;48.654;9.070;2022-07-23T05:26:24;6.07;;;5.47;;
15198;SDS011;7700;48.654;9.070;2022-07-23T05:28:50;5.97;;;5.57;;
15198;SDS011;7700;48.654;9.070;2022-07-23T05:31:16;7.82;;;5.50;;
15198;SDS011;7700;48.654;9.070;2022-07-23T05:33:42;5.80;;;5.30;;
15198;SDS011;7700;48.654;9.070;2022-07-23T05:36:08;5.88;;;5.28;;
15198;SDS011;7700;48.654;9.070;2022-07-23T05:38:33;5.60;;;5.20;;
15198;SDS011;7700;48.654;9.070;2022-07-23T05:40:59;5.45;;;4.95;;
15198;SDS011;7700;48.654;9.070;2022-07-23T05:43:25;6.05;;;5.55;;
15198;SDS011;7700;48.654;9.070;2022-07-23T05:45:51;6.05;;;5.55;;
15198;SDS011;7700;48.654;9.070;2022-07-23T05:48:16;5.95;;;5.47;;
15198;SDS011;7700;48.654;9.070;2022-07-23T05:50:42;5.47;;;5.03;;
15198;SDS011;7700;48.654;9.070;2022-07-23T05:53:08;5.85;;;5.28;;
15198;SDS011;7700;48.654;9.070;2022-07-23T05:55:33;5.72;;;5.22;;
15198;SDS011;7700;48.654;9.070;2022-07-23T05:57:59;5.70;;;5.25;;
15198;SDS011;7700;48.654;9.070;2022-07-23T06:00:26;5.50;;;5.00;;
15198;SDS011;7700;48.654;9.070;2022-07-23T06:02:52;5.63;;;5.13;;
15198;SDS011;7700;48.654;9.070;2022-07-23T06:05:18;6.53;;;5.57;;
15198;SDS011;7700;48.654;9.070;2022-07-23T06:07:43;6.63;;;4.93;;
15198;SDS011;7700;48.654;9.070;2022-07-23T06:10:09;6.13;;;5.53;;
15198;SDS011;7700;48.654;9.070;2022-07-23T06:12:35;5.93;;;5.20;;
15198;SDS011;7700;48.654;9.070;2022-07-23T06:15:01;7.22;;;5.50;;
15198;SDS011;7700;48.654;9.070;2022-07-23T06:17:27;5.53;;;5.03;;
15198;SDS011;7700;48.654;9.070;2022-07-23T06:19:53;5.05;;;4.55;;
15198;SDS011;7700;48.654;9.070;2022-07-23T06:22:19;5.72;;;5.22;;
15198;SDS011;7700;48.654;9.070;2022-07-23T06:24:45;6.50;;;5.90;;
15198;SDS011;7700;48.654;9.070;2022-07-23T06:27:10;6.32;;;5.63;;
15198;SDS011;7700;48.654;9.070;2022-07-23T06:29:36;6.55;;;5.95;;
15198;SDS011;7700;48.654;9.070;2022-07-23T06:32:02;9.82;;;6.30;;
15198;SDS011;7700;48.654;9.070;2022-07-23T06:34:27;6.32;;;5.82;;
15198;SDS011;7700;48.654;9.070;2022-07-23T06:36:53;6.40;;;5.90;;
15198;SDS011;7700;48.654;9.070;2022-07-23T06:39:18;6.22;;;5.53;;
15198;SDS011;7700;48.654;9.070;2022-07-23T06:41:44;6.35;;;5.85;;
15198;SDS011;7700;48.654;9.070;2022-07-23T06:44:10;6.72;;;6.18;;
15198;SDS011;7700;48.654;9.070;2022-07-23T06:46:35;6.30;;;5.70;;
15198;SDS011;7700;48.654;9.070;2022-07-23T06:49:01;6.97;;;6.22;;
15198;SDS011;7700;48.654;9.070;2022-07-23T06:51:26;6.57;;;5.97;;
15198;SDS011;7700;48.654;9.070;2022-07-23T06:53:52;6.30;;;5.78;;
15198;SDS011;7700;48.654;9.070;2022-07-23T06:56:17;6.85;;;6.25;;
15198;SDS011;7700;48.654;9.070;2022-07-23T06:58:43;6.70;;;6.10;;
15198;SDS011;7700;48.654;9.070;2022-07-23T07:01:08;6.32;;;5.82;;
15198;SDS011;7700;48.654;9.070;2022-07-23T07:03:34;6.82;;;6.22;;
15198;SDS011;7700;48.654;9.070;2022-07-23T07:05:59;6.50;;;5.90;;
15198;SDS011;7700;48.654;9.070;2022-07-23T07:08:25;7.93;;;6.18;;
15198;SDS011;7700;48.654;9.070;2022-07-23T07:10:51;6.45;;;5.95;;
15198;SDS011;7700;48.654;9.070;2022-07-23T07:13:16;6.75;;;5.60;;
15198;SDS011;7700;48.654;9.070;2022-07-23T07:15:42;6.45;;;5.85;;
15198;SDS011;7700;48.654;9.070;2022-07-23T07:18:07;6.18;;;5.70;;
15198;SDS011;7700;48.654;9.070;2022-07-23T07:20:33;6.68;;;6.07;;
15198;SDS011;7700;48.654;9.070;2022-07-23T07:22:58;6.22;;;5.68;;
15198;SDS011;7700;48.654;9.070;2022-07-23T07:25:24;6.13;;;5.28;;
15198;SDS011;7700;48.654;9.070;2022-07-23T07:27:49;5.85;;;4.93;;
15198;SDS011;7700;48.654;9.070;2022-07-23T07:30:15;5.95;;;5.43;;
15198;SDS011;7700;48.654;9.070;2022-07-23T07:32:41;5.32;;;4.88;;
15198;SDS011;7700;48.654;9.070;2022-07-23T07:35:07;6.32;;;5.43;;
15198;SDS011;7700;48.654;9.070;2022-07-23T07:37:33;6.07;;;5.57;;
15198;SDS011;7700;48.654;9.070;2022-07-23T07:39:59;5.70;;;5.20;;
15198;SDS011;7700;48.654;9.070;2022-07-23T07:42:25;5.90;;;5.40;;
15198;SDS011;7700;48.654;9.070;2022-07-23T07:44:51;6.25;;;5.63;;
15198;SDS011;7700;48.654;9.070;2022-07-23T07:47:17;5.28;;;4.88;;
15198;SDS011;7700;48.654;9.070;2022-07-23T07:49:42;5.55;;;5.05;;
15198;SDS011;7700;48.654;9.070;2022-07-23T07:52:08;5.35;;;4.85;;
15198;SDS011;7700;48.654;9.070;2022-07-23T07:54:34;5.65;;;5.15;;
15198;SDS011;7700;48.654;9.070;2022-07-23T07:57:00;5.20;;;4.80;;
15198;SDS011;7700;48.654;9.070;2022-07-23T07:59:26;5.82;;;5.32;;
15198;SDS011;7700;48.654;9.070;2022-07-23T08:01:51;5.68;;;5.22;;
15198;SDS011;7700;48.654;9.070;2022-07-23T08:04:17;6.03;;;5.43;;
15198;SDS011;7700;48.654;9.070;2022-07-23T08:06:43;5.80;;;4.65;;
15198;SDS011;7700;48.654;9.070;2022-07-23T08:09:08;4.82;;;4.53;;
15198;SDS011;7700;48.654;9.070;2022-07-23T08:11:34;5.45;;;4.95;;
15198;SDS011;7700;48.654;9.070;2022-07-23T08:13:59;5.30;;;4.88;;
15198;SDS011;7700;48.654;9.070;2022-07-23T08:16:25;5.07;;;4.68;;
15198;SDS011;7700;48.654;9.070;2022-07-23T08:18:50;6.07;;;5.50;;
15198;SDS011;7700;48.654;9.070;2022-07-23T08:21:16;5.50;;;5.00;;
15198;SDS011;7700;48.654;9.070;2022-07-23T08:23:42;5.40;;;5.00;;
15198;SDS011;7700;48.654;9.070;2022-07-23T08:26:07;5.35;;;4.85;;
15198;SDS011;7700;48.654;9.070;2022-07-23T08:28:33;5.18;;;4.68;;
15198;SDS011;7700;48.654;9.070;2022-07-23T08:30:59;5.80;;;5.30;;
15198;SDS011;7700;48.654;9.070;2022-07-23T08:33:25;5.93;;;5.10;;
15198;SDS011;7700;48.654;9.070;2022-07-23T08:35:51;4.75;;;4.40;;
15198;SDS011;7700;48.654;9.070;2022-07-23T08:38:18;5.40;;;5.00;;
15198;SDS011;7700;48.654;9.070;2022-07-23T08:40:46;5.53;;;5.05;;
15198;SDS011;7700;48.654;9.070;2022-07-23T08:43:14;5.25;;;4.78;;
15198;SDS011;7700;48.654;9.070;2022-07-23T08:45:45;5.75;;;5.13;;
15198;SDS011;7700;48.654;9.070;2022-07-23T08:48:13;5.43;;;4.85;;
15198;SDS011;7700;48.654;9.070;2022-07-23T08:50:50;5.65;;;5.15;;
15198;SDS011;7700;48.654;9.070;2022-07-23T08:53:17;5.47;;;4.90;;
15198;SDS011;7700;48.654;9.070;2022-07-23T08:55:44;5.28;;;4.80;;
15198;SDS011;7700;48.654;9.070;2022-07-23T08:58:11;7.30;;;4.82;;
15198;SDS011;7700;48.654;9.070;2022-07-23T09:00:37;5.35;;;4.93;;
15198;SDS011;7700;48.654;9.070;2022-07-23T09:03:03;5.07;;;4.68;;
15198;SDS011;7700;48.654;9.070;2022-07-23T09:05:29;5.68;;;5.18;;
15198;SDS011;7700;48.654;9.070;2022-07-23T09:10:44;5.53;;;5.07;;
15198;SDS011;7700;48.654;9.070;2022-07-23T09:13:25;5.75;;;5.25;;
15198;SDS011;7700;48.654;9.070;2022-07-23T09:15:54;4.95;;;4.60;;
15198;SDS011;7700;48.654;9.070;2022-07-23T09:18:28;5.97;;;5.47;;
15198;SDS011;7700;48.654;9.070;2022-07-23T09:23:46;5.32;;;4.95;;
15198;SDS011;7700;48.654;9.070;2022-07-23T09:26:24;5.43;;;4.93;;
15198;SDS011;7700;48.654;9.070;2022-07-23T09:29:13;5.85;;;5.35;;
15198;SDS011;7700;48.654;9.070;2022-07-23T09:34:13;5.72;;;5.22;;
15198;SDS011;7700;48.654;9.070;2022-07-23T09:36:41;5.40;;;4.93;;
15198;SDS011;7700;48.654;9.070;2022-07-23T09:39:07;7.25;;;5.22;;
15198;SDS011;7700;48.654;9.070;2022-07-23T09:41:34;5.95;;;5.43;;
15198;SDS011;7700;48.654;9.070;2022-07-23T09:44:07;5.68;;;5.18;;
15198;SDS011;7700;48.654;9.070;2022-07-23T09:46:37;5.32;;;4.90;;
15198;SDS011;7700;48.654;9.070;2022-07-23T09:49:17;5.35;;;4.95;;
15198;SDS011;7700;48.654;9.070;2022-07-23T09:51:57;6.00;;;5.53;;
15198;SDS011;7700;48.654;9.070;2022-07-23T09:57:00;6.32;;;5.32;;
15198;SDS011;7700;48.654;9.070;2022-07-23T09:59:41;6.15;;;5.70;;
15198;SDS011;7700;48.654;9.070;2022-07-23T10:03:31;5.90;;;5.40;;
15198;SDS011;7700;48.654;9.070;2022-07-23T10:05:57;5.97;;;5.47;;
15198;SDS011;7700;48.654;9.070;2022-07-23T10:08:22;5.45;;;5.05;;
15198;SDS011;7700;48.654;9.070;2022-07-23T10:10:48;5.88;;;5.47;;
15198;SDS011;7700;48.654;9.070;2022-07-23T10:13:16;6.13;;;5.30;;
15198;SDS011;7700;48.654;9.070;2022-07-23T10:16:00;6.05;;;5.47;;
15198;SDS011;7700;48.654;9.070;2022-07-23T10:18:26;5.85;;;5.35;;
15198;SDS011;7700;48.654;9.070;2022-07-23T10:20:51;7.35;;;6.65;;
15198;SDS011;7700;48.654;9.070;2022-07-23T10:23:24;6.32;;;5.82;;
15198;SDS011;7700;48.654;9.070;2022-07-23T10:26:23;6.35;;;5.85;;
15198;SDS011;7700;48.654;9.070;2022-07-23T10:37:13;6.30;;;5.72;;
15198;SDS011;7700;48.654;9.070;2022-07-23T10:40:08;8.77;;;7.90;;
15198;SDS011;7700;48.654;9.070;2022-07-23T10:42:44;7.50;;;6.75;;
15198;SDS011;7700;48.654;9.070;2022-07-23T10:48:17;6.07;;;5.57;;
15198;SDS011;7700;48.654;9.070;2022-07-23T10:59:14;5.70;;;5.20;;
15198;SDS011;7700;48.654;9.070;2022-07-23T11:01:39;6.25;;;5.75;;
15198;SDS011;7700;48.654;9.070;2022-07-23T11:04:05;5.35;;;4.95;;
15198;SDS011;7700;48.654;9.070;2022-07-23T11:09:23;5.45;;;5.03;;
15198;SDS011;7700;48.654;9.070;2022-07-23T11:17:29;5.13;;;4.72;;
15198;SDS011;7700;48.654;9.070;2022-07-23T11:22:38;4.80;;;4.50;;
15198;SDS011;7700;48.654;9.070;2022-07-23T11:25:05;4.43;;;4.07;;
15198;SDS011;7700;48.654;9.070;2022-07-23T11:30:03;4.47;;;4.18;;
15198;SDS011;7700;48.654;9.070;2022-07-23T11:32:30;5.10;;;4.20;;
15198;SDS011;7700;48.654;9.070;2022-07-23T11:34:59;4.88;;;4.43;;
15198;SDS011;7700;48.654;9.070;2022-07-23T11:37:28;4.97;;;4.57;;
15198;SDS011;7700;48.654;9.070;2022-07-23T11:40:08;4.32;;;4.03;;
15198;SDS011;7700;48.654;9.070;2022-07-23T11:42:36;7.00;;;4.72;;
15198;SDS011;7700;48.654;9.070;2022-07-23T11:45:03;5.20;;;4.80;;
15198;SDS011;7700;48.654;9.070;2022-07-23T11:47:33;4.82;;;4.43;;
15198;SDS011;7700;48.654;9.070;2022-07-23T11:49:59;4.45;;;4.15;;
15198;SDS011;7700;48.654;9.070;2022-07-23T11:52:27;4.57;;;4.18;;
15198;SDS011;7700;48.654;9.070;2022-07-23T11:57:31;4.75;;;4.35;;
15198;SDS011;7700;48.654;9.070;2022-07-23T12:00:06;4.75;;;4.43;;
15198;SDS011;7700;48.654;9.070;2022-07-23T12:02:47;4.88;;;4.47;;
15198;SDS011;7700;48.654;9.070;2022-07-23T12:05:15;4.72;;;4.20;;
15198;SDS011;7700;48.654;9.070;2022-07-23T12:07:43;4.50;;;4.20;;
15198;SDS011;7700;48.654;9.070;2022-07-23T12:10:14;4.75;;;4.35;;
15198;SDS011;7700;48.654;9.070;2022-07-23T12:12:43;4.90;;;4.47;;
15198;SDS011;7700;48.654;9.070;2022-07-23T12:15:21;4.40;;;4.10;;
15198;SDS011;7700;48.654;9.070;2022-07-23T12:17:49;5.40;;;4.30;;
15198;SDS011;7700;48.654;9.070;2022-07-23T12:20:18;5.00;;;4.65;;
15198;SDS011;7700;48.654;9.070;2022-07-23T12:22:47;4.47;;;4.18;;
15198;SDS011;7700;48.654;9.070;2022-07-23T12:25:18;4.97;;;4.57;;
15198;SDS011;7700;48.654;9.070;2022-07-23T12:28:00;4.78;;;4.30;;
15198;SDS011;7700;48.654;9.070;2022-07-23T12:30:33;5.05;;;4.68;;
15198;SDS011;7700;48.654;9.070;2022-07-23T12:33:12;4.90;;;4.60;;
15198;SDS011;7700;48.654;9.070;2022-07-23T12:35:47;4.63;;;4.32;;
15198;SDS011;7700;48.654;9.070;2022-07-23T12:38:20;4.53;;;4.22;;
15198;SDS011;7700;48.654;9.070;2022-07-23T12:40:47;4.68;;;4.35;;
15198;SDS011;7700;48.654;9.070;2022-07-23T12:43:22;5.00;;;4.60;;
15198;SDS011;7700;48.654;9.070;2022-07-23T12:45:55;5.25;;;4.80;;
15198;SDS011;7700;48.654;9.070;2022-07-23T12:48:31;4.85;;;4.53;;
15198;SDS011;7700;48.654;9.070;2022-07-23T12:51:43;5.63;;;5.13;;
15198;SDS011;7700;48.654;9.070;2022-07-23T12:53:56;5.88;;;4.82;;
15198;SDS011;7700;48.654;9.070;2022-07-23T12:56:33;5.35;;;4.88;;
15198;SDS011;7700;48.654;9.070;2022-07-23T13:01:29;4.93;;;4.53;;
15198;SDS011;7700;48.654;9.070;2022-07-23T13:04:04;5.72;;;5.18;;
15198;SDS011;7700;48.654;9.070;2022-07-23T13:06:38;5.38;;;4.97;;
15198;SDS011;7700;48.654;9.070;2022-07-23T13:09:06;5.00;;;4.60;;
15198;SDS011;7700;48.654;9.070;2022-07-23T13:11:33;5.10;;;4.70;;
15198;SDS011;7700;48.654;9.070;2022-07-23T13:13:59;5.88;;;5.10;;
15198;SDS011;7700;48.654;9.070;2022-07-23T13:16:28;5.30;;;4.80;;
15198;SDS011;7700;48.654;9.070;2022-07-23T13:18:54;5.90;;;5.30;;
15198;SDS011;7700;48.654;9.070;2022-07-23T13:21:21;5.63;;;5.13;;
15198;SDS011;7700;48.654;9.070;2022-07-23T13:23:47;5.47;;;4.63;;
15198;SDS011;7700;48.654;9.070;2022-07-23T13:26:13;5.65;;;4.57;;
15198;SDS011;7700;48.654;9.070;2022-07-23T13:28:39;5.15;;;4.78;;
15198;SDS011;7700;48.654;9.070;2022-07-23T13:31:04;5.30;;;4.90;;
15198;SDS011;7700;48.654;9.070;2022-07-23T13:33:30;5.40;;;4.93;;
15198;SDS011;7700;48.654;9.070;2022-07-23T13:35:56;5.38;;;4.97;;
15198;SDS011;7700;48.654;9.070;2022-07-23T13:38:22;5.55;;;5.10;;
15198;SDS011;7700;48.654;9.070;2022-07-23T13:40:48;4.88;;;4.47;;
15198;SDS011;7700;48.654;9.070;2022-07-23T13:43:16;5.22;;;4.82;;
15198;SDS011;7700;48.654;9.070;2022-07-23T13:45:43;5.40;;;4.90;;
15198;SDS011;7700;48.654;9.070;2022-07-23T13:48:10;6.97;;;4.70;;
15198;SDS011;7700;48.654;9.070;2022-07-23T13:50:36;5.15;;;4.72;;
15198;SDS011;7700;48.654;9.070;2022-07-23T13:53:03;5.20;;;4.70;;
15198;SDS011;7700;48.654;9.070;2022-07-23T13:55:30;5.40;;;5.00;;
15198;SDS011;7700;48.654;9.070;2022-07-23T13:57:56;5.53;;;5.13;;
15198;SDS011;7700;48.654;9.070;2022-07-23T14:00:22;5.45;;;5.05;;
15198;SDS011;7700;48.654;9.070;2022-07-23T14:02:48;5.13;;;4.82;;
15198;SDS011;7700;48.654;9.070;2022-07-23T14:05:13;5.43;;;4.93;;
15198;SDS011;7700;48.654;9.070;2022-07-23T14:07:39;5.78;;;5.28;;
15198;SDS011;7700;48.654;9.070;2022-07-23T14:10:05;5.57;;;5.07;;
15198;SDS011;7700;48.654;9.070;2022-07-23T14:12:32;5.85;;;5.28;;
15198;SDS011;7700;48.654;9.070;2022-07-23T14:14:58;6.25;;;5.70;;
15198;SDS011;7700;48.654;9.070;2022-07-23T14:17:23;5.93;;;5.43;;
15198;SDS011;7700;48.654;9.070;2022-07-23T14:19:49;5.63;;;5.13;;
15198;SDS011;7700;48.654;9.070;2022-07-23T14:22:15;5.85;;;5.28;;
15198;SDS011;7700;48.654;9.070;2022-07-23T14:24:41;6.22;;;5.72;;
15198;SDS011;7700;48.654;9.070;2022-07-23T14:27:07;6.07;;;5.47;;
15198;SDS011;7700;48.654;9.070;2022-07-23T14:29:33;5.65;;;5.10;;
15198;SDS011;7700;48.654;9.070;2022-07-23T14:31:59;5.40;;;5.00;;
15198;SDS011;7700;48.654;9.070;2022-07-23T14:34:25;5.82;;;5.38;;
15198;SDS011;7700;48.654;9.070;2022-07-23T14:36:51;6.07;;;5.00;;
15198;SDS011;7700;48.654;9.070;2022-07-23T14:39:17;5.68;;;5.18;;
15198;SDS011;7700;48.654;9.070;2022-07-23T14:41:43;5.45;;;5.03;;
15198;SDS011;7700;48.654;9.070;2022-07-23T14:44:09;5.60;;;5.10;;
15198;SDS011;7700;48.654;9.070;2022-07-23T14:46:35;5.32;;;4.93;;
15198;SDS011;7700;48.654;9.070;2022-07-23T14:49:01;5.68;;;5.15;;
15198;SDS011;7700;48.654;9.070;2022-07-23T14:51:27;5.70;;;5.30;;
15198;SDS011;7700;48.654;9.070;2022-07-23T14:53:53;5.78;;;5.25;;
15198;SDS011;7700;48.654;9.070;2022-07-23T14:56:18;5.40;;;5.00;;
15198;SDS011;7700;48.654;9.070;2022-07-23T14:58:44;5.85;;;5.28;;
15198;SDS011;7700;48.654;9.070;2022-07-23T15:01:10;5.70;;;5.30;;
15198;SDS011;7700;48.654;9.070;2022-07-23T15:03:35;7.20;;;5.40;;
15198;SDS011;7700;48.654;9.070;2022-07-23T15:06:01;5.90;;;5.43;;
15198;SDS011;7700;48.654;9.070;2022-07-23T15:08:26;6.10;;;5.60;;
15198;SDS011;7700;48.654;9.070;2022-07-23T15:10:52;5.60;;;5.10;;
15198;SDS011;7700;48.654;9.070;2022-07-23T15:13:17;5.60;;;5.20;;
15198;SDS011;7700;48.654;9.070;2022-07-23T15:15:43;5.80;;;5.30;;
15198;SDS011;7700;48.654;9.070;2022-07-23T15:18:10;5.85;;;5.45;;
15198;SDS011;7700;48.654;9.070;2022-07-23T15:20:36;31.25;;;21.88;;
15198;SDS011;7700;48.654;9.070;2022-07-23T15:23:02;16.20;;;13.10;;
15198;SDS011;7700;48.654;9.070;2022-07-23T15:25:29;6.72;;;6.13;;
15198;SDS011;7700;48.654;9.070;2022-07-23T15:27:56;7.07;;;6.25;;
15198;SDS011;7700;48.654;9.070;2022-07-23T15:30:23;7.07;;;6.45;;
15198;SDS011;7700;48.654;9.070;2022-07-23T15:32:49;6.50;;;6.00;;
15198;SDS011;7700;48.654;9.070;2022-07-23T15:35:15;6.32;;;5.82;;
15198;SDS011;7700;48.654;9.070;2022-07-23T15:37:41;7.85;;;7.25;;
15198;SDS011;7700;48.654;9.070;2022-07-23T15:40:07;5.97;;;5.38;;
15198;SDS011;7700;48.654;9.070;2022-07-23T15:42:33;5.32;;;4.82;;
15198;SDS011;7700;48.654;9.070;2022-07-23T15:44:59;5.97;;;5.47;;
15198;SDS011;7700;48.654;9.070;2022-07-23T15:47:24;6.32;;;5.47;;
15198;SDS011;7700;48.654;9.070;2022-07-23T15:49:50;6.85;;;5.90;;